Taiki Maru — JI3464 — position and weather

sailwx.info

Track history (hours):
 
Tides and Currents Weather Stations Pressure Air Temp Water Temp Dewpoint Dewpoint Depression Visibility Wind Speed Wind Dir Waves Ship Positions

Taiki Maru

Last reported at 2017-Dec-17 16:03 UTC. Time now 2017-Dec-17 17:53 UTC.
Position N 33°56' E 134°56'.

Length 93 m; draft 5.2 m.

Type: Cargo ship. MMSI: 431300622.

Date/timePositionNaut miles runAvg speedWind from/ knotsBaromVisibWave heightAir tempDewpointWater temp
2017-Dec-17 16:03N 33°56' E 134°56'114.6
2017-Dec-17 16:00N 33°57' E 134°57'714.7
2017-Dec-17 15:30N 34°03' E 135°00'714.7
2017-Dec-17 15:00N 34°10' E 135°03'510.0
2017-Dec-17 14:30N 34°14' E 135°07'1 1.0
2017-Dec-17 13:59N 34°14' E 135°08'0 0.0
2017-Dec-17 13:29N 34°14' E 135°08'0 0.0
2017-Dec-17 12:59N 34°14' E 135°08'0 0.0
2017-Dec-17 12:29N 34°14' E 135°08'0 0.1
2017-Dec-17 11:59N 34°14' E 135°08'0 0.0
2017-Dec-17 11:29N 34°14' E 135°08'0 0.1
2017-Dec-17 10:59N 34°14' E 135°08'0 0.1
2017-Dec-17 10:26N 34°14' E 135°08'0 0.1
2017-Dec-17 09:59N 34°14' E 135°08'0 0.1
2017-Dec-17 09:29N 34°14' E 135°08'0 0.0
2017-Dec-17 08:56N 34°14' E 135°08'0 0.1
2017-Dec-17 08:23N 34°14' E 135°08'0 0.1
2017-Dec-17 07:59N 34°14' E 135°08'0 0.1
2017-Dec-17 07:29N 34°14' E 135°08'0 0.0
2017-Dec-17 06:59N 34°14' E 135°08'0 0.0
2017-Dec-17 06:29N 34°14' E 135°08'0 0.0
2017-Dec-17 05:59N 34°14' E 135°08'0 0.0
2017-Dec-17 05:29N 34°14' E 135°08'0 0.0
2017-Dec-17 04:59N 34°14' E 135°08'0 0.0
2017-Dec-17 04:29N 34°14' E 135°08'0 0.1
2017-Dec-17 03:59N 34°14' E 135°08'0 0.1
2017-Dec-17 03:23N 34°14' E 135°08'0 0.3
2017-Dec-17 03:00N 34°14' E 135°08'4 7.2
2017-Dec-17 02:31N 34°15' E 135°03'5 9.9
2017-Dec-17 02:00N 34°18' E 134°59'611.5
2017-Dec-17 01:30N 34°24' E 135°00'612.5
2017-Dec-17 01:00N 34°30' E 135°02'611.6
2017-Dec-17 00:30N 34°35' E 135°03'5 9.1
2017-Dec-17 00:01N 34°36' E 134°58'4 8.9
2017-Dec-16 23:30N 34°37' E 134°52'611.3
2017-Dec-16 23:00N 34°39' E 134°46'611.9
2017-Dec-16 22:30N 34°42' E 134°39'612.0
2017-Dec-16 22:00N 34°42' E 134°32'712.2
2017-Dec-16 21:26N 34°42' E 134°23'3 0.3
2017-Dec-16 13:37N 34°45' E 134°22'0 0.7
2017-Dec-16 13:30N 34°45' E 134°22'3 0.3
2017-Dec-16 01:53N 34°41' E 134°23'0 0.3
2017-Dec-16 01:29N 34°41' E 134°23'0 0.0
2017-Dec-16 00:05N 34°41' E 134°23'0 0.0
2017-Dec-15 23:59N 34°41' E 134°23'0 0.0
2017-Dec-15 21:11N 34°41' E 134°23'0 0.0
2017-Dec-15 20:47N 34°41' E 134°23'0 0.0
2017-Dec-15 20:17N 34°41' E 134°23'0 0.0
2017-Dec-15 15:05N 34°41' E 134°23'0 0.0
2017-Dec-15 12:58N 34°41' E 134°23'610.0
2017-Dec-15 12:24N 34°43' E 134°30'613.8
2017-Dec-15 12:00N 34°43' E 134°37'713.4
2017-Dec-15 11:30N 34°40' E 134°44'714.2
2017-Dec-15 11:00N 34°38' E 134°52'714.7
2017-Dec-15 10:30N 34°37' E 135°01'612.7
2017-Dec-15 10:00N 34°32' E 135°04'714.6
2017-Dec-15 09:30N 34°25' E 135°03'714.2
2017-Dec-15 09:00N 34°18' E 134°60'611.4
2017-Dec-15 08:30N 34°15' E 135°05'2 3.8
2017-Dec-15 07:59N 34°14' E 135°08'0 0.0
2017-Dec-15 07:29N 34°14' E 135°08'0 0.0
2017-Dec-15 06:59N 34°14' E 135°08'0 0.0
2017-Dec-15 06:29N 34°14' E 135°08'0 0.0
2017-Dec-15 05:55N 34°14' E 135°08'0 0.1
2017-Dec-15 05:28N 34°14' E 135°08'0 0.1
2017-Dec-15 04:58N 34°14' E 135°08'0 0.0
2017-Dec-15 04:29N 34°14' E 135°08'0 0.0
2017-Dec-15 03:58N 34°14' E 135°08'0 0.0
2017-Dec-15 02:29N 34°14' E 135°08'0 0.0
2017-Dec-15 00:58N 34°14' E 135°08'0 0.0
2017-Dec-15 00:28N 34°14' E 135°08'0 0.0
2017-Dec-14 18:28N 34°14' E 135°08'0 0.2
2017-Dec-14 18:00N 34°14' E 135°08'2 4.2
2017-Dec-14 17:30N 34°13' E 135°05'2 4.6
2017-Dec-14 17:00N 34°11' E 135°07'0 0.1
2017-Dec-14 16:30N 34°11' E 135°07'0 0.1
2017-Dec-14 16:00N 34°11' E 135°07'0 0.0
2017-Dec-14 15:00N 34°11' E 135°07'0 0.0
2017-Dec-14 14:30N 34°11' E 135°07'0 0.0
2017-Dec-14 14:00N 34°11' E 135°07'0 0.0
2017-Dec-14 13:30N 34°11' E 135°07'0 0.0
2017-Dec-14 13:00N 34°11' E 135°07'0 0.0
2017-Dec-14 12:30N 34°11' E 135°07'0 0.0
2017-Dec-14 12:00N 34°11' E 135°07'0 0.0
2017-Dec-14 11:30N 34°11' E 135°07'0 0.0
2017-Dec-14 11:00N 34°11' E 135°07'0 0.0
2017-Dec-14 10:30N 34°11' E 135°07'0 0.0
2017-Dec-14 10:00N 34°11' E 135°07'0 0.0
2017-Dec-14 09:30N 34°11' E 135°07'0 0.0
2017-Dec-14 09:00N 34°11' E 135°07'0 0.0
2017-Dec-14 08:30N 34°11' E 135°07'0 0.0
2017-Dec-14 08:00N 34°11' E 135°07'0 0.0
2017-Dec-14 07:30N 34°11' E 135°07'0 0.0
2017-Dec-14 07:00N 34°11' E 135°07'0 0.0
2017-Dec-14 06:30N 34°11' E 135°07'0 0.0
2017-Dec-14 06:00N 34°11' E 135°07'0 0.0
2017-Dec-14 05:30N 34°11' E 135°07'0 0.0
2017-Dec-14 05:00N 34°11' E 135°07'0 0.0
2017-Dec-14 04:30N 34°11' E 135°07'0 0.0
2017-Dec-14 04:00N 34°11' E 135°07'0 0.0
2017-Dec-14 03:30N 34°11' E 135°07'0 0.0
2017-Dec-14 03:00N 34°11' E 135°07'0 0.5
2017-Dec-14 02:30N 34°11' E 135°07'5 9.5
2017-Dec-14 02:01N 34°08' E 135°03'611.0
2017-Dec-14 01:30N 34°03' E 135°00'811.6
2017-Dec-14 00:51N 33°55' E 134°58'610.8
2017-Dec-14 00:16N 33°49' E 134°55'6 0.1
2017-Dec-12 05:11N 33°56' E 134°57'313.7
2017-Dec-12 04:59N 33°58' E 134°58'713.9
2017-Dec-12 04:30N 34°05' E 135°01'714.0
2017-Dec-12 04:00N 34°11' E 135°04'4 7.5
2017-Dec-12 03:26N 34°14' E 135°08'0 0.1
2017-Dec-12 02:59N 34°14' E 135°08'0 0.0
2017-Dec-12 02:17N 34°14' E 135°08'0 0.0
2017-Dec-12 01:59N 34°14' E 135°08'0 0.0
2017-Dec-12 01:26N 34°14' E 135°08'0 0.0
2017-Dec-12 00:59N 34°14' E 135°08'0 0.0
2017-Dec-12 00:29N 34°14' E 135°08'0 0.0
2017-Dec-11 23:59N 34°14' E 135°08'0 0.0
2017-Dec-11 23:29N 34°14' E 135°08'0 0.1
2017-Dec-11 22:59N 34°14' E 135°08'0 0.1
2017-Dec-11 22:29N 34°14' E 135°08'0 0.0
2017-Dec-11 21:59N 34°14' E 135°08'0 0.0
2017-Dec-11 21:29N 34°14' E 135°08'0 0.0
2017-Dec-11 20:59N 34°14' E 135°08'0 0.0
2017-Dec-11 20:26N 34°14' E 135°08'0 0.0
2017-Dec-11 19:59N 34°14' E 135°08'0 0.0
2017-Dec-11 19:29N 34°14' E 135°08'0 0.0
2017-Dec-11 18:59N 34°14' E 135°08'0 0.0
2017-Dec-11 18:29N 34°14' E 135°08'0 0.0
2017-Dec-11 17:59N 34°14' E 135°08'0 0.0
2017-Dec-11 17:29N 34°14' E 135°08'0 0.0
2017-Dec-11 16:59N 34°14' E 135°08'0 0.0
2017-Dec-11 16:29N 34°14' E 135°08'0 0.0
2017-Dec-11 15:59N 34°14' E 135°08'0 0.0
2017-Dec-11 15:26N 34°14' E 135°08'0 0.0
2017-Dec-11 14:59N 34°14' E 135°08'0 0.0
2017-Dec-11 14:29N 34°14' E 135°08'0 0.0
2017-Dec-11 13:59N 34°14' E 135°08'0 0.0
2017-Dec-11 13:29N 34°14' E 135°08'0 0.7
2017-Dec-11 13:00N 34°14' E 135°07'4 7.9
2017-Dec-11 12:30N 34°15' E 135°03'510.7
2017-Dec-11 12:01N 34°19' E 134°59'713.5
2017-Dec-11 11:31N 34°26' E 135°00'713.1
2017-Dec-11 11:00N 34°32' E 135°03'611.4
2017-Dec-11 10:30N 34°37' E 134°60'612.7
2017-Dec-11 10:00N 34°38' E 134°52'612.9
2017-Dec-11 09:30N 34°39' E 134°44'612.4
2017-Dec-11 09:00N 34°43' E 134°38'712.6
2017-Dec-11 08:29N 34°42' E 134°30'710.2
2017-Dec-11 07:50N 34°43' E 134°22'1 0.1
2017-Dec-10 23:26N 34°45' E 134°22'2 3.7
2017-Dec-10 22:57N 34°43' E 134°22'2 0.3
2017-Dec-10 16:51N 34°41' E 134°23'0 0.1
2017-Dec-10 15:57N 34°41' E 134°23'0 0.0
2017-Dec-10 07:09N 34°41' E 134°23'0 0.0
2017-Dec-10 06:51N 34°41' E 134°23'0 0.0
2017-Dec-10 06:27N 34°41' E 134°23'0 0.0
2017-Dec-10 05:57N 34°41' E 134°23'0 0.0
2017-Dec-10 05:27N 34°41' E 134°23'0 0.0
2017-Dec-10 03:09N 34°41' E 134°23'0 0.0
2017-Dec-10 02:51N 34°41' E 134°23'0 0.0
2017-Dec-10 02:27N 34°41' E 134°23'0 0.1
2017-Dec-10 01:57N 34°41' E 134°23'0 0.0
2017-Dec-10 01:27N 34°41' E 134°23'0 0.0
2017-Dec-10 00:57N 34°41' E 134°23'0 0.0
2017-Dec-10 00:15N 34°41' E 134°23'0 0.0
2017-Dec-09 23:45N 34°41' E 134°23'0 0.0
2017-Dec-09 23:21N 34°41' E 134°23'0 0.1
2017-Dec-09 22:51N 34°41' E 134°23'0 0.0
2017-Dec-09 22:27N 34°41' E 134°23'0 0.0
2017-Dec-09 21:57N 34°41' E 134°23'0 0.1
2017-Dec-09 21:27N 34°41' E 134°23'0 0.0
2017-Dec-09 19:21N 34°41' E 134°23'0 0.0
2017-Dec-09 18:57N 34°41' E 134°23'0 0.1
2017-Dec-09 18:21N 34°41' E 134°23'0 0.0
2017-Dec-09 17:27N 34°41' E 134°23'0 0.0
2017-Dec-09 16:57N 34°41' E 134°23'0 0.0
2017-Dec-09 16:21N 34°41' E 134°23'0 0.0
2017-Dec-09 15:57N 34°41' E 134°23'0 0.1
2017-Dec-09 15:27N 34°41' E 134°23'0 0.0
2017-Dec-09 14:57N 34°41' E 134°23'0 0.1
2017-Dec-09 14:21N 34°41' E 134°23'0 0.0
2017-Dec-09 13:57N 34°41' E 134°23'0 0.2
2017-Dec-09 13:30N 34°41' E 134°23'710.7
2017-Dec-09 12:52N 34°43' E 134°31'513.2
2017-Dec-09 12:29N 34°43' E 134°37'612.6
2017-Dec-09 12:00N 34°40' E 134°44'612.4
2017-Dec-09 11:30N 34°38' E 134°51'611.4
2017-Dec-09 11:00N 34°37' E 134°58'5 9.7
2017-Dec-09 10:30N 34°36' E 135°03'510.0
2017-Dec-09 10:00N 34°31' E 135°05'612.7
2017-Dec-09 09:30N 34°25' E 135°03'612.4
2017-Dec-09 09:00N 34°19' E 135°00'5 9.1
2017-Dec-09 08:30N 34°15' E 135°03'4 8.5
2017-Dec-09 07:59N 34°14' E 135°08'0 0.1
2017-Dec-09 07:29N 34°14' E 135°08'0 0.0
2017-Dec-09 06:59N 34°14' E 135°08'0 0.0
2017-Dec-09 06:29N 34°14' E 135°08'0 0.0
2017-Dec-09 05:59N 34°14' E 135°08'0 0.0
2017-Dec-09 05:26N 34°14' E 135°08'0 0.0
2017-Dec-09 04:59N 34°14' E 135°08'0 0.1
2017-Dec-09 04:29N 34°14' E 135°08'0 0.1
2017-Dec-09 03:59N 34°14' E 135°08'0 0.0
2017-Dec-09 03:29N 34°14' E 135°08'0 0.0
2017-Dec-09 02:59N 34°14' E 135°08'0 0.0
2017-Dec-09 02:29N 34°14' E 135°08'0 0.0
2017-Dec-09 01:59N 34°14' E 135°08'0 0.0
2017-Dec-09 01:29N 34°14' E 135°08'0 0.0
2017-Dec-09 00:59N 34°14' E 135°08'0 0.0
2017-Dec-09 00:29N 34°14' E 135°08'0 0.0
2017-Dec-08 23:59N 34°14' E 135°08'0 0.0
2017-Dec-08 23:29N 34°14' E 135°08'0 0.0
2017-Dec-08 22:59N 34°14' E 135°08'0 0.0
2017-Dec-08 22:29N 34°14' E 135°08'0 0.0
2017-Dec-08 21:53N 34°14' E 135°08'0 0.0
2017-Dec-08 21:29N 34°14' E 135°08'0 0.0
2017-Dec-08 20:59N 34°14' E 135°08'0 0.0
2017-Dec-08 20:29N 34°14' E 135°08'0 0.0
2017-Dec-08 19:59N 34°14' E 135°08'0 0.1
2017-Dec-08 19:30N 34°14' E 135°08'2 4.3
2017-Dec-08 19:00N 34°14' E 135°05'2 3.6
2017-Dec-08 18:30N 34°13' E 135°03'1 1.6
2017-Dec-08 18:00N 34°13' E 135°02'4 8.8
2017-Dec-08 17:30N 34°10' E 134°58'510.2
2017-Dec-08 17:00N 34°07' E 134°54'4 7.7
2017-Dec-08 16:30N 34°03' E 134°52'4 7.2
2017-Dec-08 16:00N 34°04' E 134°56'612.7
2017-Dec-08 15:30N 34°10' E 134°57'612.6
2017-Dec-08 15:00N 34°17' E 134°58'612.0
2017-Dec-08 14:30N 34°22' E 134°60'612.0
2017-Dec-08 14:00N 34°28' E 135°01'611.6
2017-Dec-08 13:30N 34°34' E 135°03'5 9.3
2017-Dec-08 13:00N 34°37' E 134°59'611.6
2017-Dec-08 12:30N 34°38' E 134°52'612.4
2017-Dec-08 12:00N 34°39' E 134°44'612.1
2017-Dec-08 11:30N 34°42' E 134°38'712.5
2017-Dec-08 10:55N 34°42' E 134°29'511.9
2017-Dec-08 10:28N 34°42' E 134°23'2 1.7
2017-Dec-08 09:02N 34°45' E 134°22'0 0.0
2017-Dec-08 06:26N 34°45' E 134°22'0 0.0
2017-Dec-08 05:56N 34°45' E 134°22'0 0.0
2017-Dec-08 05:26N 34°45' E 134°22'0 0.0
2017-Dec-08 04:56N 34°45' E 134°22'0 0.0
2017-Dec-08 04:20N 34°45' E 134°22'0 0.0
2017-Dec-08 03:50N 34°45' E 134°22'0 0.0
2017-Dec-08 03:26N 34°45' E 134°22'0 0.0
2017-Dec-08 02:50N 34°45' E 134°22'0 0.0
2017-Dec-08 02:26N 34°45' E 134°22'0 0.0
2017-Dec-08 01:56N 34°45' E 134°22'0 0.0
2017-Dec-08 01:26N 34°45' E 134°22'0 0.0
2017-Dec-08 01:00N 34°45' E 134°22'2 3.7
2017-Dec-08 00:30N 34°43' E 134°22'2 0.2
2017-Dec-07 16:33N 34°42' E 134°23'0 0.1
2017-Dec-07 16:21N 34°42' E 134°23'  
Track history (hours):
 
Tides and Currents Weather Stations Pressure Air Temp Water Temp Dewpoint Dewpoint Depression Visibility Wind Speed Wind Dir Waves Ship Positions

Taiki Maru

Last reported at 2017-Dec-17 16:03 UTC. Time now 2017-Dec-17 17:53 UTC.
Position N 33°56' E 134°56'.

Length 93 m; draft 5.2 m.

Type: Cargo ship. MMSI: 431300622.

Date/timePositionNaut miles runAvg speedWind from/ knotsBaromVisibWave heightAir tempDewpointWater temp
2017-Dec-17 16:03N 33°56' E 134°56'114.6
2017-Dec-17 16:00N 33°57' E 134°57'714.7
2017-Dec-17 15:30N 34°03' E 135°00'714.7
2017-Dec-17 15:00N 34°10' E 135°03'510.0
2017-Dec-17 14:30N 34°14' E 135°07'1 1.0
2017-Dec-17 13:59N 34°14' E 135°08'0 0.0
2017-Dec-17 13:29N 34°14' E 135°08'0 0.0
2017-Dec-17 12:59N 34°14' E 135°08'0 0.0
2017-Dec-17 12:29N 34°14' E 135°08'0 0.1
2017-Dec-17 11:59N 34°14' E 135°08'0 0.0
2017-Dec-17 11:29N 34°14' E 135°08'0 0.1
2017-Dec-17 10:59N 34°14' E 135°08'0 0.1
2017-Dec-17 10:26N 34°14' E 135°08'0 0.1
2017-Dec-17 09:59N 34°14' E 135°08'0 0.1
2017-Dec-17 09:29N 34°14' E 135°08'0 0.0
2017-Dec-17 08:56N 34°14' E 135°08'0 0.1
2017-Dec-17 08:23N 34°14' E 135°08'0 0.1
2017-Dec-17 07:59N 34°14' E 135°08'0 0.1
2017-Dec-17 07:29N 34°14' E 135°08'0 0.0
2017-Dec-17 06:59N 34°14' E 135°08'0 0.0
2017-Dec-17 06:29N 34°14' E 135°08'0 0.0
2017-Dec-17 05:59N 34°14' E 135°08'0 0.0
2017-Dec-17 05:29N 34°14' E 135°08'0 0.0
2017-Dec-17 04:59N 34°14' E 135°08'0 0.0
2017-Dec-17 04:29N 34°14' E 135°08'0 0.1
2017-Dec-17 03:59N 34°14' E 135°08'0 0.1
2017-Dec-17 03:23N 34°14' E 135°08'0 0.3
2017-Dec-17 03:00N 34°14' E 135°08'4 7.2
2017-Dec-17 02:31N 34°15' E 135°03'5 9.9
2017-Dec-17 02:00N 34°18' E 134°59'611.5
2017-Dec-17 01:30N 34°24' E 135°00'612.5
2017-Dec-17 01:00N 34°30' E 135°02'611.6
2017-Dec-17 00:30N 34°35' E 135°03'5 9.1
2017-Dec-17 00:01N 34°36' E 134°58'4 8.9
2017-Dec-16 23:30N 34°37' E 134°52'611.3
2017-Dec-16 23:00N 34°39' E 134°46'611.9
2017-Dec-16 22:30N 34°42' E 134°39'612.0
2017-Dec-16 22:00N 34°42' E 134°32'712.2
2017-Dec-16 21:26N 34°42' E 134°23'3 0.3
2017-Dec-16 13:37N 34°45' E 134°22'0 0.7
2017-Dec-16 13:30N 34°45' E 134°22'3 0.3
2017-Dec-16 01:53N 34°41' E 134°23'0 0.3
2017-Dec-16 01:29N 34°41' E 134°23'0 0.0
2017-Dec-16 00:05N 34°41' E 134°23'0 0.0
2017-Dec-15 23:59N 34°41' E 134°23'0 0.0
2017-Dec-15 21:11N 34°41' E 134°23'0 0.0
2017-Dec-15 20:47N 34°41' E 134°23'0 0.0
2017-Dec-15 20:17N 34°41' E 134°23'0 0.0
2017-Dec-15 15:05N 34°41' E 134°23'0 0.0
2017-Dec-15 12:58N 34°41' E 134°23'610.0
2017-Dec-15 12:24N 34°43' E 134°30'613.8
2017-Dec-15 12:00N 34°43' E 134°37'713.4
2017-Dec-15 11:30N 34°40' E 134°44'714.2
2017-Dec-15 11:00N 34°38' E 134°52'714.7
2017-Dec-15 10:30N 34°37' E 135°01'612.7
2017-Dec-15 10:00N 34°32' E 135°04'714.6
2017-Dec-15 09:30N 34°25' E 135°03'714.2
2017-Dec-15 09:00N 34°18' E 134°60'611.4
2017-Dec-15 08:30N 34°15' E 135°05'2 3.8
2017-Dec-15 07:59N 34°14' E 135°08'0 0.0
2017-Dec-15 07:29N 34°14' E 135°08'0 0.0
2017-Dec-15 06:59N 34°14' E 135°08'0 0.0
2017-Dec-15 06:29N 34°14' E 135°08'0 0.0
2017-Dec-15 05:55N 34°14' E 135°08'0 0.1
2017-Dec-15 05:28N 34°14' E 135°08'0 0.1
2017-Dec-15 04:58N 34°14' E 135°08'0 0.0
2017-Dec-15 04:29N 34°14' E 135°08'0 0.0
2017-Dec-15 03:58N 34°14' E 135°08'0 0.0
2017-Dec-15 02:29N 34°14' E 135°08'0 0.0
2017-Dec-15 00:58N 34°14' E 135°08'0 0.0
2017-Dec-15 00:28N 34°14' E 135°08'0 0.0
2017-Dec-14 18:28N 34°14' E 135°08'0 0.2
2017-Dec-14 18:00N 34°14' E 135°08'2 4.2
2017-Dec-14 17:30N 34°13' E 135°05'2 4.6
2017-Dec-14 17:00N 34°11' E 135°07'0 0.1
2017-Dec-14 16:30N 34°11' E 135°07'0 0.1
2017-Dec-14 16:00N 34°11' E 135°07'0 0.0
2017-Dec-14 15:00N 34°11' E 135°07'0 0.0
2017-Dec-14 14:30N 34°11' E 135°07'0 0.0
2017-Dec-14 14:00N 34°11' E 135°07'0 0.0
2017-Dec-14 13:30N 34°11' E 135°07'0 0.0
2017-Dec-14 13:00N 34°11' E 135°07'0 0.0
2017-Dec-14 12:30N 34°11' E 135°07'0 0.0
2017-Dec-14 12:00N 34°11' E 135°07'0 0.0
2017-Dec-14 11:30N 34°11' E 135°07'0 0.0
2017-Dec-14 11:00N 34°11' E 135°07'0 0.0
2017-Dec-14 10:30N 34°11' E 135°07'0 0.0
2017-Dec-14 10:00N 34°11' E 135°07'0 0.0
2017-Dec-14 09:30N 34°11' E 135°07'0 0.0
2017-Dec-14 09:00N 34°11' E 135°07'0 0.0
2017-Dec-14 08:30N 34°11' E 135°07'0 0.0
2017-Dec-14 08:00N 34°11' E 135°07'0 0.0
2017-Dec-14 07:30N 34°11' E 135°07'0 0.0
2017-Dec-14 07:00N 34°11' E 135°07'0 0.0
2017-Dec-14 06:30N 34°11' E 135°07'0 0.0
2017-Dec-14 06:00N 34°11' E 135°07'0 0.0
2017-Dec-14 05:30N 34°11' E 135°07'0 0.0
2017-Dec-14 05:00N 34°11' E 135°07'0 0.0
2017-Dec-14 04:30N 34°11' E 135°07'0 0.0
2017-Dec-14 04:00N 34°11' E 135°07'0 0.0
2017-Dec-14 03:30N 34°11' E 135°07'0 0.0
2017-Dec-14 03:00N 34°11' E 135°07'0 0.5
2017-Dec-14 02:30N 34°11' E 135°07'5 9.5
2017-Dec-14 02:01N 34°08' E 135°03'611.0
2017-Dec-14 01:30N 34°03' E 135°00'811.6
2017-Dec-14 00:51N 33°55' E 134°58'610.8
2017-Dec-14 00:16N 33°49' E 134°55'6 0.1
2017-Dec-12 05:11N 33°56' E 134°57'313.7
2017-Dec-12 04:59N 33°58' E 134°58'713.9
2017-Dec-12 04:30N 34°05' E 135°01'714.0
2017-Dec-12 04:00N 34°11' E 135°04'4 7.5
2017-Dec-12 03:26N 34°14' E 135°08'0 0.1
2017-Dec-12 02:59N 34°14' E 135°08'0 0.0
2017-Dec-12 02:17N 34°14' E 135°08'0 0.0
2017-Dec-12 01:59N 34°14' E 135°08'0 0.0
2017-Dec-12 01:26N 34°14' E 135°08'0 0.0
2017-Dec-12 00:59N 34°14' E 135°08'0 0.0
2017-Dec-12 00:29N 34°14' E 135°08'0 0.0
2017-Dec-11 23:59N 34°14' E 135°08'0 0.0
2017-Dec-11 23:29N 34°14' E 135°08'0 0.1
2017-Dec-11 22:59N 34°14' E 135°08'0 0.1
2017-Dec-11 22:29N 34°14' E 135°08'0 0.0
2017-Dec-11 21:59N 34°14' E 135°08'0 0.0
2017-Dec-11 21:29N 34°14' E 135°08'0 0.0
2017-Dec-11 20:59N 34°14' E 135°08'0 0.0
2017-Dec-11 20:26N 34°14' E 135°08'0 0.0
2017-Dec-11 19:59N 34°14' E 135°08'0 0.0
2017-Dec-11 19:29N 34°14' E 135°08'0 0.0
2017-Dec-11 18:59N 34°14' E 135°08'0 0.0
2017-Dec-11 18:29N 34°14' E 135°08'0 0.0
2017-Dec-11 17:59N 34°14' E 135°08'0 0.0
2017-Dec-11 17:29N 34°14' E 135°08'0 0.0
2017-Dec-11 16:59N 34°14' E 135°08'0 0.0
2017-Dec-11 16:29N 34°14' E 135°08'0 0.0
2017-Dec-11 15:59N 34°14' E 135°08'0 0.0
2017-Dec-11 15:26N 34°14' E 135°08'0 0.0
2017-Dec-11 14:59N 34°14' E 135°08'0 0.0
2017-Dec-11 14:29N 34°14' E 135°08'0 0.0
2017-Dec-11 13:59N 34°14' E 135°08'0 0.0
2017-Dec-11 13:29N 34°14' E 135°08'0 0.7
2017-Dec-11 13:00N 34°14' E 135°07'4 7.9
2017-Dec-11 12:30N 34°15' E 135°03'510.7
2017-Dec-11 12:01N 34°19' E 134°59'713.5
2017-Dec-11 11:31N 34°26' E 135°00'713.1
2017-Dec-11 11:00N 34°32' E 135°03'611.4
2017-Dec-11 10:30N 34°37' E 134°60'612.7
2017-Dec-11 10:00N 34°38' E 134°52'612.9
2017-Dec-11 09:30N 34°39' E 134°44'612.4
2017-Dec-11 09:00N 34°43' E 134°38'712.6
2017-Dec-11 08:29N 34°42' E 134°30'710.2
2017-Dec-11 07:50N 34°43' E 134°22'1 0.1
2017-Dec-10 23:26N 34°45' E 134°22'2 3.7
2017-Dec-10 22:57N 34°43' E 134°22'2 0.3
2017-Dec-10 16:51N 34°41' E 134°23'0 0.1
2017-Dec-10 15:57N 34°41' E 134°23'0 0.0
2017-Dec-10 07:09N 34°41' E 134°23'0 0.0
2017-Dec-10 06:51N 34°41' E 134°23'0 0.0
2017-Dec-10 06:27N 34°41' E 134°23'0 0.0
2017-Dec-10 05:57N 34°41' E 134°23'0 0.0
2017-Dec-10 05:27N 34°41' E 134°23'0 0.0
2017-Dec-10 03:09N 34°41' E 134°23'0 0.0
2017-Dec-10 02:51N 34°41' E 134°23'0 0.0
2017-Dec-10 02:27N 34°41' E 134°23'0 0.1
2017-Dec-10 01:57N 34°41' E 134°23'0 0.0
2017-Dec-10 01:27N 34°41' E 134°23'0 0.0
2017-Dec-10 00:57N 34°41' E 134°23'0 0.0
2017-Dec-10 00:15N 34°41' E 134°23'0 0.0
2017-Dec-09 23:45N 34°41' E 134°23'0 0.0
2017-Dec-09 23:21N 34°41' E 134°23'0 0.1
2017-Dec-09 22:51N 34°41' E 134°23'0 0.0
2017-Dec-09 22:27N 34°41' E 134°23'0 0.0
2017-Dec-09 21:57N 34°41' E 134°23'0 0.1
2017-Dec-09 21:27N 34°41' E 134°23'0 0.0
2017-Dec-09 19:21N 34°41' E 134°23'0 0.0
2017-Dec-09 18:57N 34°41' E 134°23'0 0.1
2017-Dec-09 18:21N 34°41' E 134°23'0 0.0
2017-Dec-09 17:27N 34°41' E 134°23'0 0.0
2017-Dec-09 16:57N 34°41' E 134°23'0 0.0
2017-Dec-09 16:21N 34°41' E 134°23'0 0.0
2017-Dec-09 15:57N 34°41' E 134°23'0 0.1
2017-Dec-09 15:27N 34°41' E 134°23'0 0.0
2017-Dec-09 14:57N 34°41' E 134°23'0 0.1
2017-Dec-09 14:21N 34°41' E 134°23'0 0.0
2017-Dec-09 13:57N 34°41' E 134°23'0 0.2
2017-Dec-09 13:30N 34°41' E 134°23'710.7
2017-Dec-09 12:52N 34°43' E 134°31'513.2
2017-Dec-09 12:29N 34°43' E 134°37'612.6
2017-Dec-09 12:00N 34°40' E 134°44'612.4
2017-Dec-09 11:30N 34°38' E 134°51'611.4
2017-Dec-09 11:00N 34°37' E 134°58'5 9.7
2017-Dec-09 10:30N 34°36' E 135°03'510.0
2017-Dec-09 10:00N 34°31' E 135°05'612.7
2017-Dec-09 09:30N 34°25' E 135°03'612.4
2017-Dec-09 09:00N 34°19' E 135°00'5 9.1
2017-Dec-09 08:30N 34°15' E 135°03'4 8.5
2017-Dec-09 07:59N 34°14' E 135°08'0 0.1
2017-Dec-09 07:29N 34°14' E 135°08'0 0.0
2017-Dec-09 06:59N 34°14' E 135°08'0 0.0
2017-Dec-09 06:29N 34°14' E 135°08'0 0.0
2017-Dec-09 05:59N 34°14' E 135°08'0 0.0
2017-Dec-09 05:26N 34°14' E 135°08'0 0.0
2017-Dec-09 04:59N 34°14' E 135°08'0 0.1
2017-Dec-09 04:29N 34°14' E 135°08'0 0.1
2017-Dec-09 03:59N 34°14' E 135°08'0 0.0
2017-Dec-09 03:29N 34°14' E 135°08'0 0.0
2017-Dec-09 02:59N 34°14' E 135°08'0 0.0
2017-Dec-09 02:29N 34°14' E 135°08'0 0.0
2017-Dec-09 01:59N 34°14' E 135°08'0 0.0
2017-Dec-09 01:29N 34°14' E 135°08'0 0.0
2017-Dec-09 00:59N 34°14' E 135°08'0 0.0
2017-Dec-09 00:29N 34°14' E 135°08'0 0.0
2017-Dec-08 23:59N 34°14' E 135°08'0 0.0
2017-Dec-08 23:29N 34°14' E 135°08'0 0.0
2017-Dec-08 22:59N 34°14' E 135°08'0 0.0
2017-Dec-08 22:29N 34°14' E 135°08'0 0.0
2017-Dec-08 21:53N 34°14' E 135°08'0 0.0
2017-Dec-08 21:29N 34°14' E 135°08'0 0.0
2017-Dec-08 20:59N 34°14' E 135°08'0 0.0
2017-Dec-08 20:29N 34°14' E 135°08'0 0.0
2017-Dec-08 19:59N 34°14' E 135°08'0 0.1
2017-Dec-08 19:30N 34°14' E 135°08'2 4.3
2017-Dec-08 19:00N 34°14' E 135°05'2 3.6
2017-Dec-08 18:30N 34°13' E 135°03'1 1.6
2017-Dec-08 18:00N 34°13' E 135°02'4 8.8
2017-Dec-08 17:30N 34°10' E 134°58'510.2
2017-Dec-08 17:00N 34°07' E 134°54'4 7.7
2017-Dec-08 16:30N 34°03' E 134°52'4 7.2
2017-Dec-08 16:00N 34°04' E 134°56'612.7
2017-Dec-08 15:30N 34°10' E 134°57'612.6
2017-Dec-08 15:00N 34°17' E 134°58'612.0
2017-Dec-08 14:30N 34°22' E 134°60'612.0
2017-Dec-08 14:00N 34°28' E 135°01'611.6
2017-Dec-08 13:30N 34°34' E 135°03'5 9.3
2017-Dec-08 13:00N 34°37' E 134°59'611.6
2017-Dec-08 12:30N 34°38' E 134°52'612.4
2017-Dec-08 12:00N 34°39' E 134°44'612.1
2017-Dec-08 11:30N 34°42' E 134°38'712.5
2017-Dec-08 10:55N 34°42' E 134°29'511.9
2017-Dec-08 10:28N 34°42' E 134°23'2 1.7
2017-Dec-08 09:02N 34°45' E 134°22'0 0.0
2017-Dec-08 06:26N 34°45' E 134°22'0 0.0
2017-Dec-08 05:56N 34°45' E 134°22'0 0.0
2017-Dec-08 05:26N 34°45' E 134°22'0 0.0
2017-Dec-08 04:56N 34°45' E 134°22'0 0.0
2017-Dec-08 04:20N 34°45' E 134°22'0 0.0
2017-Dec-08 03:50N 34°45' E 134°22'0 0.0
2017-Dec-08 03:26N 34°45' E 134°22'0 0.0
2017-Dec-08 02:50N 34°45' E 134°22'0 0.0
2017-Dec-08 02:26N 34°45' E 134°22'0 0.0
2017-Dec-08 01:56N 34°45' E 134°22'0 0.0
2017-Dec-08 01:26N 34°45' E 134°22'0 0.0
2017-Dec-08 01:00N 34°45' E 134°22'2 3.7
2017-Dec-08 00:30N 34°43' E 134°22'2 0.2
2017-Dec-07 16:33N 34°42' E 134°23'0 0.1
2017-Dec-07 16:21N 34°42' E 134°23'  

Dump ship's entire track history